createdAt,value
2019-03-23T00:00:53.852Z,14.10
2019-03-23T00:03:25.833Z,12.47
2019-03-23T00:05:58.404Z,12.40
2019-03-23T00:08:31.292Z,14.47
2019-03-23T00:11:03.074Z,14.90
2019-03-23T00:13:35.038Z,11.87
2019-03-23T00:16:08.900Z,12.63
2019-03-23T00:18:41.942Z,12.67
2019-03-23T00:21:12.522Z,14.47
2019-03-23T00:23:43.966Z,14.43
2019-03-23T00:28:53.115Z,14.60
2019-03-23T00:31:24.515Z,13.57
2019-03-23T00:33:53.926Z,13.63
2019-03-23T00:36:27.722Z,13.53
2019-03-23T00:39:00.944Z,13.00
2019-03-23T00:41:30.141Z,13.97
2019-03-23T00:44:07.569Z,13.67
2019-03-23T00:46:38.474Z,13.10
2019-03-23T00:49:10.375Z,14.40
2019-03-23T00:51:40.370Z,14.17
2019-03-23T00:54:10.055Z,13.77
2019-03-23T00:56:40.166Z,14.07
2019-03-23T00:59:10.413Z,16.17
2019-03-23T01:01:45.968Z,16.45
2019-03-23T01:04:10.534Z,14.60
2019-03-23T01:06:51.729Z,16.70
2019-03-23T01:09:17.039Z,16.40
2019-03-23T01:11:50.023Z,14.90
2019-03-23T01:14:19.707Z,15.40
2019-03-23T01:16:51.391Z,14.87
2019-03-23T01:19:21.580Z,14.37
2019-03-23T01:21:56.761Z,16.30
2019-03-23T01:24:28.893Z,16.00
2019-03-23T01:26:59.034Z,15.67
2019-03-23T01:29:31.064Z,14.67
2019-03-23T01:31:59.385Z,15.07
2019-03-23T01:34:33.077Z,15.70
2019-03-23T01:37:04.105Z,16.13
2019-03-23T01:39:35.041Z,15.43
2019-03-23T01:42:04.049Z,17.80
2019-03-23T01:44:33.041Z,16.87
2019-03-23T01:47:04.644Z,17.50
2019-03-23T01:49:33.668Z,15.03
2019-03-23T01:52:17.980Z,15.40
2019-03-23T01:57:27.723Z,15.60
2019-03-23T02:00:03.696Z,16.43
2019-03-23T02:02:32.623Z,17.10
2019-03-23T02:05:04.253Z,15.97
2019-03-23T02:07:36.292Z,17.33
2019-03-23T02:10:09.745Z,18.13
2019-03-23T02:12:40.926Z,19.48
2019-03-23T02:15:11.671Z,19.67
2019-03-23T02:17:41.530Z,19.53
2019-03-23T02:20:12.236Z,19.40
2019-03-23T02:22:44.070Z,19.07
2019-03-23T02:25:15.586Z,17.47
2019-03-23T02:27:45.908Z,17.83
2019-03-23T02:30:15.844Z,19.60
2019-03-23T02:32:50.079Z,19.50
2019-03-23T02:35:16.101Z,18.40
2019-03-23T02:37:47.377Z,18.43
2019-03-23T02:40:22.076Z,19.40
2019-03-23T02:42:49.991Z,19.27
2019-03-23T02:45:20.588Z,18.87
2019-03-23T02:47:51.696Z,20.40
2019-03-23T02:50:21.814Z,18.30
2019-03-23T02:52:51.403Z,18.30
2019-03-23T02:55:21.605Z,18.00
2019-03-23T02:57:54.976Z,17.13
2019-03-23T03:00:27.573Z,18.87
2019-03-23T03:02:55.916Z,17.83
2019-03-23T03:05:25.088Z,17.83
2019-03-23T03:07:55.229Z,17.90
2019-03-23T03:10:37.507Z,16.90
2019-03-23T03:13:08.044Z,18.80
2019-03-23T03:15:43.991Z,17.80
2019-03-23T03:18:14.238Z,16.97
2019-03-23T03:20:44.266Z,16.10
2019-03-23T03:23:14.894Z,17.50
2019-03-23T03:25:48.445Z,18.60
2019-03-23T03:28:22.802Z,17.87
2019-03-23T03:30:54.534Z,17.53
2019-03-23T03:33:25.743Z,16.80
2019-03-23T03:35:57.909Z,16.30
2019-03-23T03:38:29.749Z,18.93
2019-03-23T03:43:36.981Z,17.10
2019-03-23T03:46:04.786Z,16.60
2019-03-23T03:48:38.731Z,18.27
2019-03-23T03:51:08.480Z,16.87
2019-03-23T03:53:39.955Z,18.10
2019-03-23T03:56:10.151Z,17.70
2019-03-23T03:58:42.524Z,17.80
2019-03-23T04:01:12.155Z,17.13
2019-03-23T04:03:42.295Z,19.23
2019-03-23T04:06:12.479Z,20.90
2019-03-23T04:08:43.457Z,19.20
2019-03-23T04:11:15.393Z,18.90
2019-03-23T04:13:46.245Z,18.50
2019-03-23T04:16:17.273Z,18.30
2019-03-23T04:18:48.503Z,17.07
2019-03-23T04:21:18.964Z,18.00
2019-03-23T04:23:53.114Z,20.00
2019-03-23T04:26:29.342Z,17.13
2019-03-23T04:29:00.110Z,17.87
2019-03-23T04:31:31.406Z,17.03
2019-03-23T04:34:02.608Z,17.30
2019-03-23T04:39:12.510Z,18.30
2019-03-23T04:41:42.424Z,17.70
2019-03-23T04:44:15.587Z,17.23
2019-03-23T04:46:46.441Z,19.20
2019-03-23T04:49:17.410Z,20.30
2019-03-23T04:51:53.219Z,20.77
2019-03-23T04:54:21.681Z,18.93
2019-03-23T04:56:59.233Z,18.17
2019-03-23T04:59:29.931Z,19.27
2019-03-23T05:02:00.463Z,18.50
2019-03-23T05:04:30.138Z,16.77
2019-03-23T05:06:59.795Z,19.10
2019-03-23T05:09:38.165Z,19.30
2019-03-23T05:12:13.539Z,18.70
2019-03-23T05:14:49.966Z,18.67
2019-03-23T05:17:18.765Z,19.27
2019-03-23T05:19:49.712Z,18.50
2019-03-23T05:22:21.881Z,18.80
2019-03-23T05:24:52.547Z,19.87
2019-03-23T05:27:23.277Z,21.82
2019-03-23T05:29:57.011Z,18.80
2019-03-23T05:32:26.081Z,22.17
2019-03-23T05:34:56.799Z,19.50
2019-03-23T05:37:33.508Z,18.30
2019-03-23T05:40:04.281Z,18.10
2019-03-23T05:42:34.211Z,20.27
2019-03-23T05:47:44.302Z,19.60
2019-03-23T05:50:13.542Z,19.23
2019-03-23T05:52:43.606Z,17.37
2019-03-23T05:58:05.465Z,18.20
2019-03-23T06:00:36.406Z,18.47
2019-03-23T06:03:07.061Z,18.40
2019-03-23T06:05:38.349Z,19.47
2019-03-23T06:08:08.360Z,18.30
2019-03-23T06:10:39.346Z,21.37
2019-03-23T06:13:10.257Z,20.95
2019-03-23T06:15:47.110Z,18.77
2019-03-23T06:18:20.730Z,19.70
2019-03-23T06:20:51.815Z,19.50
2019-03-23T06:23:28.237Z,19.80
2019-03-23T06:25:58.226Z,20.20
2019-03-23T06:28:31.781Z,20.65
2019-03-23T06:31:05.112Z,19.40
2019-03-23T06:33:37.598Z,19.27
2019-03-23T06:36:08.689Z,19.17
2019-03-23T06:38:39.309Z,19.30
2019-03-23T06:41:08.419Z,18.43
2019-03-23T06:43:39.699Z,18.07
2019-03-23T06:46:10.198Z,19.03
2019-03-23T06:48:39.794Z,18.23
2019-03-23T06:51:10.787Z,16.93
2019-03-23T06:53:42.596Z,17.80
2019-03-23T06:56:15.143Z,19.47
2019-03-23T07:01:34.445Z,20.20
2019-03-23T07:04:07.400Z,19.73
2019-03-23T07:06:41.767Z,18.20
2019-03-23T07:09:16.245Z,18.23
2019-03-23T07:11:42.353Z,17.43
2019-03-23T07:14:13.677Z,15.63
2019-03-23T07:16:45.706Z,16.53
2019-03-23T07:19:14.561Z,17.73
2019-03-23T07:21:44.401Z,16.40
2019-03-23T07:24:18.439Z,17.50
2019-03-23T07:26:48.574Z,18.10
2019-03-23T07:29:17.741Z,18.27
2019-03-23T07:31:50.276Z,17.57
2019-03-23T07:34:21.970Z,17.00
2019-03-23T07:36:52.816Z,18.27
2019-03-23T07:39:28.076Z,15.47
2019-03-23T07:41:55.273Z,17.00
2019-03-23T07:44:26.333Z,16.87
2019-03-23T07:46:56.457Z,17.62
2019-03-23T07:49:27.726Z,16.32
2019-03-23T07:54:43.620Z,15.43
2019-03-23T07:57:18.636Z,15.03
2019-03-23T08:02:27.988Z,15.53
2019-03-23T08:04:57.709Z,14.43
2019-03-23T08:07:30.992Z,14.70
2019-03-23T08:10:01.437Z,15.43
2019-03-23T08:12:33.197Z,15.23
2019-03-23T08:15:02.821Z,15.63
2019-03-23T08:17:34.591Z,15.63
2019-03-23T08:20:03.691Z,15.23
2019-03-23T08:22:34.591Z,15.43
2019-03-23T08:27:46.446Z,15.40
2019-03-23T08:30:17.126Z,15.07
2019-03-23T08:32:50.101Z,14.43
2019-03-23T08:38:02.505Z,15.50
2019-03-23T08:40:35.782Z,15.67
2019-03-23T08:43:04.535Z,14.67
2019-03-23T08:45:39.494Z,16.13
2019-03-23T08:48:11.441Z,21.17
2019-03-23T08:50:42.643Z,15.93
2019-03-23T08:53:14.608Z,15.70
2019-03-23T08:55:45.077Z,17.43
2019-03-23T08:58:18.126Z,17.37
2019-03-23T09:00:51.816Z,14.63
2019-03-23T09:03:24.778Z,16.10
2019-03-23T09:05:55.135Z,16.77
2019-03-23T09:08:25.447Z,14.87
2019-03-23T09:10:56.438Z,18.02
2019-03-23T09:13:40.205Z,18.35
2019-03-23T09:15:58.545Z,17.67
2019-03-23T09:18:29.215Z,17.23
2019-03-23T09:20:58.515Z,17.17
2019-03-23T09:23:29.597Z,16.80
2019-03-23T09:25:58.414Z,18.30
2019-03-23T09:28:28.584Z,16.40
2019-03-23T09:30:57.498Z,19.23
2019-03-23T09:33:26.082Z,16.17
2019-03-23T09:35:56.171Z,19.12
2019-03-23T09:38:26.263Z,21.57
2019-03-23T09:40:59.078Z,20.50
2019-03-23T09:43:28.306Z,19.40
2019-03-23T09:45:59.751Z,20.95
2019-03-23T09:48:30.530Z,20.27
2019-03-23T09:51:00.458Z,20.43
2019-03-23T09:53:30.708Z,20.47
2019-03-23T09:56:02.058Z,19.77
2019-03-23T09:58:30.396Z,19.73
2019-03-23T10:01:00.133Z,21.60
2019-03-23T10:03:30.100Z,19.40
2019-03-23T10:05:59.142Z,19.03
2019-03-23T10:08:29.654Z,21.33
2019-03-23T10:11:00.489Z,20.30
2019-03-23T10:13:33.444Z,19.40
2019-03-23T10:16:04.208Z,19.67
2019-03-23T10:21:20.463Z,23.45
2019-03-23T10:23:50.408Z,22.40
2019-03-23T10:26:21.919Z,21.90
2019-03-23T10:28:52.659Z,23.30
2019-03-23T10:31:23.491Z,22.10
2019-03-23T10:33:55.238Z,22.47
2019-03-23T10:36:26.930Z,23.03
2019-03-23T10:38:58.226Z,21.47
2019-03-23T10:41:33.051Z,23.20
2019-03-23T10:44:03.497Z,26.20
2019-03-23T10:46:34.869Z,24.87
2019-03-23T10:49:06.194Z,23.40
2019-03-23T10:51:36.981Z,22.70
2019-03-23T10:54:06.767Z,35.50
2019-03-23T10:56:36.537Z,25.60
2019-03-23T10:59:07.749Z,24.57
2019-03-23T11:01:39.489Z,26.77
2019-03-23T11:06:54.230Z,26.27
2019-03-23T11:09:28.321Z,25.83
2019-03-23T11:11:57.336Z,23.73
2019-03-23T11:14:29.445Z,26.68
2019-03-23T11:17:02.288Z,26.20
2019-03-23T11:19:34.831Z,30.35
2019-03-23T11:22:05.533Z,24.80
2019-03-23T11:24:38.035Z,27.50
2019-03-23T11:27:07.741Z,25.10
2019-03-23T11:29:45.072Z,27.77
2019-03-23T11:32:16.314Z,28.90
2019-03-23T11:34:45.370Z,25.90
2019-03-23T11:37:15.578Z,25.90
2019-03-23T11:39:48.397Z,26.43
2019-03-23T11:42:18.292Z,28.32
2019-03-23T11:44:49.505Z,32.00
2019-03-23T11:47:19.305Z,27.58
2019-03-23T11:49:49.473Z,29.23
2019-03-23T11:52:23.378Z,29.45
2019-03-23T11:54:55.425Z,29.07
2019-03-23T11:57:29.945Z,27.47
2019-03-23T11:59:59.116Z,29.57
2019-03-23T12:02:33.741Z,25.87
2019-03-23T12:05:04.350Z,26.30
2019-03-23T12:07:36.744Z,26.00
2019-03-23T12:10:07.273Z,26.57
2019-03-23T12:12:39.943Z,25.40
2019-03-23T12:15:13.352Z,24.73
2019-03-23T12:20:21.569Z,26.13
2019-03-23T12:22:51.563Z,27.50
2019-03-23T12:28:06.370Z,28.05
2019-03-23T12:30:36.703Z,28.80
2019-03-23T12:33:07.407Z,26.87
2019-03-23T12:38:21.162Z,26.40
2019-03-23T12:40:52.395Z,24.30
2019-03-23T12:43:23.198Z,26.33
2019-03-23T12:45:54.464Z,26.37
2019-03-23T12:48:25.101Z,24.77
2019-03-23T12:50:57.212Z,26.63
2019-03-23T12:53:30.042Z,25.83
2019-03-23T12:56:01.592Z,26.27
2019-03-23T12:58:33.490Z,26.67
2019-03-23T13:01:02.170Z,25.60
2019-03-23T13:03:32.797Z,27.00
2019-03-23T13:06:04.643Z,25.93
2019-03-23T13:08:35.014Z,25.80
2019-03-23T13:11:06.660Z,28.80
2019-03-23T13:13:38.684Z,28.77
2019-03-23T13:16:10.783Z,28.10
2019-03-23T13:18:40.318Z,26.93
2019-03-23T13:21:09.734Z,24.30
2019-03-23T13:23:40.842Z,23.67
2019-03-23T13:26:14.719Z,24.33
2019-03-23T13:28:49.455Z,25.90
2019-03-23T13:31:22.464Z,24.70
2019-03-23T13:33:53.914Z,24.87
2019-03-23T13:36:24.114Z,24.17
2019-03-23T13:38:55.791Z,22.97
2019-03-23T13:41:41.194Z,25.77
2019-03-23T13:44:01.538Z,28.10
2019-03-23T13:46:33.399Z,25.57
2019-03-23T13:49:05.775Z,24.07
2019-03-23T13:51:36.424Z,25.40
2019-03-23T13:54:06.734Z,24.37
2019-03-23T13:56:40.248Z,25.40
2019-03-23T13:59:11.853Z,25.47
2019-03-23T14:01:47.798Z,22.30
2019-03-23T14:04:20.616Z,25.23
2019-03-23T14:06:56.594Z,24.37
2019-03-23T14:09:28.525Z,22.43
2019-03-23T14:12:00.514Z,24.63
2019-03-23T14:14:34.389Z,25.10
2019-03-23T14:17:05.450Z,23.70
2019-03-23T14:19:37.532Z,25.15
2019-03-23T14:22:09.679Z,22.83
2019-03-23T14:27:21.495Z,24.10
2019-03-23T14:29:51.861Z,24.43
2019-03-23T14:32:28.795Z,25.03
2019-03-23T14:34:58.358Z,26.40
2019-03-23T14:37:30.669Z,25.87
2019-03-23T14:40:02.506Z,27.77
2019-03-23T14:45:13.132Z,27.20
2019-03-23T14:47:44.768Z,26.03
2019-03-23T14:50:13.808Z,26.63
2019-03-23T14:52:42.639Z,27.20
2019-03-23T14:55:15.955Z,26.17
2019-03-23T14:57:42.966Z,29.32
2019-03-23T15:00:13.520Z,27.80
2019-03-23T15:02:46.947Z,26.90
2019-03-23T15:05:19.518Z,26.57
2019-03-23T15:07:50.484Z,25.80
2019-03-23T15:10:20.541Z,28.73
2019-03-23T15:12:52.938Z,25.80
2019-03-23T15:15:22.912Z,28.87
2019-03-23T15:17:57.152Z,27.50
2019-03-23T15:20:29.652Z,25.67
2019-03-23T15:22:58.505Z,25.67
2019-03-23T15:25:29.257Z,24.60
2019-03-23T15:28:00.308Z,23.73
2019-03-23T15:30:31.340Z,23.00
2019-03-23T15:33:02.548Z,26.60
2019-03-23T15:38:13.550Z,24.37
2019-03-23T15:40:42.645Z,22.57
2019-03-23T15:43:15.145Z,27.73
2019-03-23T15:45:45.516Z,28.40
2019-03-23T15:48:14.330Z,27.17
2019-03-23T15:53:26.598Z,26.33
2019-03-23T15:55:58.286Z,28.07
2019-03-23T15:58:29.340Z,30.17
2019-03-23T16:01:01.648Z,30.33
2019-03-23T16:03:35.688Z,32.97
2019-03-23T16:06:07.310Z,33.40
2019-03-23T16:08:39.498Z,33.20
2019-03-23T16:11:09.897Z,34.23
2019-03-23T16:13:40.637Z,30.93
2019-03-23T16:16:15.394Z,31.80
2019-03-23T16:21:25.550Z,31.47
2019-03-23T16:23:55.668Z,31.97
2019-03-23T16:26:24.744Z,33.90
2019-03-23T16:28:56.717Z,32.37
2019-03-23T16:31:25.636Z,34.53
2019-03-23T16:33:59.137Z,34.17
2019-03-23T16:36:30.651Z,33.17
2019-03-23T16:39:02.923Z,33.27
2019-03-23T16:41:32.385Z,33.90
2019-03-23T16:44:06.870Z,34.33
2019-03-23T16:46:37.992Z,34.33
2019-03-23T16:49:08.931Z,33.70
2019-03-23T16:51:38.235Z,33.90
2019-03-23T16:54:11.013Z,31.10
2019-03-23T16:56:40.215Z,33.00
2019-03-23T16:59:10.331Z,34.27
2019-03-23T17:01:45.466Z,32.57
2019-03-23T17:04:16.077Z,35.05
2019-03-23T17:06:46.860Z,32.90
2019-03-23T17:09:17.229Z,38.13
2019-03-23T17:11:48.822Z,41.10
2019-03-23T17:14:20.780Z,40.53
2019-03-23T17:16:56.012Z,37.50
2019-03-23T17:19:26.581Z,37.00
2019-03-23T17:21:57.698Z,39.20
2019-03-23T17:24:28.605Z,37.53
2019-03-23T17:26:59.198Z,37.27
2019-03-23T17:29:28.706Z,39.40
2019-03-23T17:32:02.279Z,37.37
2019-03-23T17:34:34.725Z,42.30
2019-03-23T17:37:09.958Z,40.23
2019-03-23T17:39:40.274Z,38.07
2019-03-23T17:45:01.044Z,36.43
2019-03-23T17:47:35.971Z,39.40
2019-03-23T17:50:05.573Z,39.30
2019-03-23T17:52:38.463Z,43.33
2019-03-23T17:55:08.686Z,39.90
2019-03-23T17:57:41.975Z,38.27
2019-03-23T18:00:16.642Z,39.03
2019-03-23T18:02:46.922Z,39.03
2019-03-23T18:05:21.118Z,40.40
2019-03-23T18:07:51.749Z,39.57
2019-03-23T18:10:23.103Z,41.00
2019-03-23T18:12:55.084Z,42.27
2019-03-23T18:18:06.971Z,42.07
2019-03-23T18:20:39.744Z,41.60
2019-03-23T18:23:10.179Z,42.63
2019-03-23T18:25:42.881Z,44.07
2019-03-23T18:28:17.714Z,41.10
2019-03-23T18:30:48.078Z,43.07
2019-03-23T18:33:19.250Z,43.87
2019-03-23T18:35:50.813Z,44.37
2019-03-23T18:38:19.998Z,50.15
2019-03-23T18:40:55.250Z,42.40
2019-03-23T18:43:27.679Z,51.10
2019-03-23T18:45:55.793Z,48.07
2019-03-23T18:48:28.064Z,44.93
2019-03-23T18:50:59.125Z,45.20
2019-03-23T18:53:32.193Z,46.10
2019-03-23T18:56:03.865Z,44.97
2019-03-23T18:58:34.300Z,46.00
2019-03-23T19:01:07.143Z,47.80
2019-03-23T19:03:36.487Z,53.38
2019-03-23T19:06:11.473Z,49.13
2019-03-23T19:08:42.726Z,49.70
2019-03-23T19:11:15.022Z,56.05
2019-03-23T19:13:47.993Z,50.20
2019-03-23T19:18:54.886Z,47.70
2019-03-23T19:21:22.734Z,47.20
2019-03-23T19:23:52.971Z,48.87
2019-03-23T19:26:24.205Z,46.40
2019-03-23T19:29:00.485Z,47.43
2019-03-23T19:31:31.408Z,54.23
2019-03-23T19:34:01.784Z,53.00
2019-03-23T19:36:35.962Z,55.73
2019-03-23T19:39:16.040Z,50.57
2019-03-23T19:41:44.800Z,49.33
2019-03-23T19:47:03.704Z,51.43
2019-03-23T19:49:37.993Z,48.27
2019-03-23T19:52:08.536Z,51.10
2019-03-23T19:54:38.842Z,51.73
2019-03-23T19:57:08.865Z,50.27
2019-03-23T19:59:38.779Z,52.37
2019-03-23T20:02:10.542Z,51.60
2019-03-23T20:04:40.502Z,58.57
2019-03-23T20:07:11.700Z,55.63
2019-03-23T20:09:44.057Z,52.03
2019-03-23T20:12:15.500Z,52.87
2019-03-23T20:14:49.534Z,58.42
2019-03-23T20:17:19.679Z,57.48
2019-03-23T20:22:29.516Z,52.43
2019-03-23T20:25:03.634Z,60.35
2019-03-23T20:27:35.965Z,52.50
2019-03-23T20:30:05.924Z,54.27
2019-03-23T20:32:35.428Z,51.37
2019-03-23T20:35:05.235Z,54.87
2019-03-23T20:40:17.738Z,52.43
2019-03-23T20:42:49.801Z,53.07
2019-03-23T20:45:29.107Z,60.80
2019-03-23T20:47:59.485Z,54.10
2019-03-23T20:50:29.069Z,50.50
2019-03-23T20:52:57.972Z,50.63
2019-03-23T20:55:30.849Z,52.10
2019-03-23T20:58:01.982Z,51.57
2019-03-23T21:00:30.847Z,52.10
2019-03-23T21:02:59.227Z,49.50
2019-03-23T21:05:34.489Z,51.70
2019-03-23T21:08:09.451Z,51.00
2019-03-23T21:10:41.309Z,51.00
2019-03-23T21:13:09.967Z,50.33
2019-03-23T21:15:44.933Z,48.90
2019-03-23T21:18:14.259Z,47.10
2019-03-23T21:20:45.889Z,49.03
2019-03-23T21:23:18.075Z,49.33
2019-03-23T21:25:51.712Z,48.97
2019-03-23T21:28:24.777Z,49.50
2019-03-23T21:30:58.701Z,47.93
2019-03-23T21:33:38.663Z,47.60
2019-03-23T21:36:04.417Z,48.57
2019-03-23T21:38:52.373Z,54.97
2019-03-23T21:41:12.317Z,47.73
2019-03-23T21:43:41.430Z,46.87
2019-03-23T21:46:11.411Z,54.83
2019-03-23T21:48:45.813Z,47.73
2019-03-23T21:51:16.507Z,48.60
2019-03-23T21:54:08.000Z,52.08
2019-03-23T21:56:41.535Z,53.13
2019-03-23T21:59:11.513Z,49.13
2019-03-23T22:01:43.706Z,52.03
2019-03-23T22:04:17.530Z,46.80
2019-03-23T22:06:48.985Z,43.27
2019-03-23T22:09:24.008Z,48.35
2019-03-23T22:11:58.228Z,44.90
2019-03-23T22:14:41.511Z,49.45
2019-03-23T22:17:05.876Z,44.33
2019-03-23T22:19:36.464Z,43.97
2019-03-23T22:22:12.228Z,43.10
2019-03-23T22:24:39.944Z,44.30
2019-03-23T22:27:19.199Z,42.90
2019-03-23T22:29:50.406Z,47.67
2019-03-23T22:32:21.579Z,44.43
2019-03-23T22:34:52.015Z,41.20
2019-03-23T22:37:24.257Z,40.03
2019-03-23T22:39:59.734Z,39.67
2019-03-23T22:42:30.522Z,41.00
2019-03-23T22:45:01.436Z,46.33
2019-03-23T22:47:34.613Z,43.40
2019-03-23T22:50:10.882Z,41.03
2019-03-23T22:52:43.231Z,39.30
2019-03-23T22:55:11.957Z,40.67
2019-03-23T22:57:46.645Z,38.03
2019-03-23T23:00:32.919Z,38.70
2019-03-23T23:03:04.288Z,37.27
2019-03-23T23:05:34.733Z,38.30
2019-03-23T23:08:04.750Z,38.43
2019-03-23T23:10:35.624Z,37.77
2019-03-23T23:13:13.979Z,43.05
2019-03-23T23:15:45.286Z,39.27
2019-03-23T23:18:18.135Z,41.93
2019-03-23T23:20:49.997Z,42.00
2019-03-23T23:23:20.132Z,39.63
2019-03-23T23:26:04.135Z,37.27
2019-03-23T23:31:18.815Z,36.00
2019-03-23T23:33:50.679Z,35.17
2019-03-23T23:36:21.919Z,40.50
2019-03-23T23:38:53.964Z,43.20
2019-03-23T23:41:30.555Z,37.73
2019-03-23T23:44:10.326Z,40.48
2019-03-23T23:46:46.162Z,38.47
2019-03-23T23:49:22.521Z,40.65
2019-03-23T23:51:56.857Z,35.60
2019-03-23T23:54:27.876Z,33.80
2019-03-23T23:57:03.534Z,34.43
2019-03-23T23:59:36.089Z,32.70
